Flight Track Log - Related Links

Times and Time Zones

All times are in EDT time to prevent confusion due to time zone crossing. See the SWA499 flight status page for this flight to view local times or setup timezone preferences in your user account.

Time Position Orientation Groundspeed Altitude Reporting Facility
EDT Latitude Longitude Course Direction KTS MPH feet Rate Location/Type
Sun 12:35:08 PM 39.8833 -104.6000 136° Southeast 178 205 6,400  Level Denver TRACON
Sun 12:35:28 PM 39.8733 -104.5872 136° Southeast 178 205 6,900 1,463 Climbing Denver Center
Sun 12:36:30 PM 39.8464 -104.5017 112° Southeast 258 297 8,400 2,613 Climbing Denver Center
Sun 12:37:32 PM 39.8111 -104.3931 113° Southeast 297 342 12,300 3,677 Climbing Denver Center
Sun 12:38:34 PM 39.8033 -104.2769 95° East 319 367 16,000 2,952 Climbing Denver Center
Sun 12:39:36 PM 39.7867 -104.1389 99° East 368 423 18,400 2,390 Climbing Denver Center
Sun 12:40:37 PM 39.7753 -104.0328 98° East 382 440 20,900 3,048 Climbing Denver Center
Sun 12:41:40 PM 39.7553 -103.8511 98° East 388 447 24,700 2,928 Climbing Denver Center
Sun 12:42:42 PM 39.7378 -103.7061 99° East 399 459 27,000 2,032 Climbing Denver Center
Sun 12:43:44 PM 39.7278 -103.5653 95° East 407 468 28,900 1,935 Climbing Denver Center
Sun 12:44:46 PM 39.7144 -103.3953 96° East 427 491 31,000 2,226 Climbing Denver Center
Sun 12:45:48 PM 39.7022 -103.2483 96° East 427 491 33,500 1,935 Climbing Denver Center
Sun 12:46:50 PM 39.6889 -103.0839 96° East 410 472 35,000 871 Climbing Denver Center
Sun 12:47:52 PM 39.6761 -102.9406 97° East 418 481 35,300 1,016 Climbing Denver Center
Sun 12:48:54 PM 39.6625 -102.7764 96° East 411 473 37,100 1,403 Climbing Denver Center
Sun 12:49:56 PM 39.6511 -102.6342 96° East 413 475 38,200 871 Climbing Denver Center
Sun 12:50:58 PM 39.6361 -102.4658 97° East 421 484 38,900 387 Climbing Denver Center
Sun 12:52:00 PM 39.6225 -102.3156 97° East 436 502 39,000 48 Climbing Denver Center
Sun 12:53:02 PM 39.6081 -102.1444 96° East 429 494 39,000  Level Denver Center
Sun 12:54:04 PM 39.5950 -101.9989 97° East 424 488 39,000  Level Denver Center
Sun 12:55:07 PM 39.5789 -101.8294 97° East 424 488 39,000  Level Denver Center
Sun 12:56:09 PM 39.5653 -101.6853 97° East 424 488 39,000  Level Denver Center
Sun 12:57:11 PM 39.5508 -101.5186 96° East 420 483 39,000  Level Denver Center
Sun 12:58:13 PM 39.5364 -101.3733 97° East 425 489 39,000  Level Denver Center
Sun 12:59:15 PM 39.5197 -101.2044 97° East 427 491 39,000  Level Denver Center
Sun 01:00:17 PM 39.5056 -101.0589 97° East 429 494 39,000  Level Denver Center
Sun 01:01:19 PM 39.4889 -100.8900 97° East 427 491 39,000  Level Denver Center
Sun 01:02:21 PM 39.4736 -100.7453 98° East 427 491 39,000 -242 Level Denver Center
Sun 01:03:23 PM 39.4594 -100.6006 97° East 425 489 38,500 -774 Descending Denver Center
Sun 01:04:25 PM 39.4422 -100.4322 97° East 424 488 37,400 -726 Descending Denver Center
Sun 01:05:27 PM 39.4264 -100.2839 98° East 430 495 37,000 -194 Descending Denver Center
Sun 01:06:29 PM 39.4078 -100.1086 98° East 439 505 37,000  Level Denver Center
Sun 01:07:31 PM 39.3917 -99.9619 98° East 435 501 37,000  Level Denver Center
Sun 01:08:45 PM 39.3725 -99.7872 98° East 438 504 37,000  Level Denver Center
Sun 01:09:48 PM 39.3511 -99.5886 98° East 439 505 37,000  Level Denver Center
Sun 01:10:50 PM 39.3336 -99.4394 99° East 438 504 37,000  Level Denver Center
Sun 01:11:52 PM 39.3144 -99.2631 98° East 442 509 37,000  Level Denver Center
Sun 01:12:54 PM 39.2961 -99.1156 99° East 440 506 37,000  Level Denver Center
Sun 01:13:56 PM 39.2769 -98.9406 98° East 441 507 37,000  Level Denver Center
Sun 01:14:58 PM 39.2603 -98.8028 99° East 444 511 37,000  Level Denver Center
Sun 01:16:00 PM 39.2369 -98.6139 99° East 445 512 37,000  Level Denver Center
Sun 01:17:02 PM 39.2181 -98.4539 99° East 448 516 37,000  Level Denver Center
Sun 01:17:38 PM 39.2081 -98.3686 99° East 452 520 37,000 -612 Level Kansas City Center
Sun 01:18:40 PM 39.1878 -98.2081 99° East 453 521 36,000 -919 Descending Kansas City Center
Sun 01:19:42 PM 39.1658 -98.0447 100° East 459 528 35,100 -484 Descending Kansas City Center
Sun 01:20:44 PM 39.1433 -97.8497 98° East 465 535 35,000 -48 Descending Kansas City Center
Sun 01:21:46 PM 39.1225 -97.6933 100° East 463 533 35,000 -194 Level Kansas City Center
Sun 01:22:48 PM 39.0989 -97.5103 99° East 464 534 34,600 -629 Descending Kansas City Center
Sun 01:23:50 PM 39.0775 -97.3533 100° East 464 534 33,700 -968 Descending Kansas City Center
Sun 01:24:52 PM 39.0536 -97.1697 99° East 465 535 32,600 -968 Descending Kansas City Center
Sun 01:25:54 PM 39.0328 -97.0142 100° East 463 533 31,700 -927 Descending Kansas City Center
Sun 01:26:55 PM 39.0125 -96.8597 100° East 460 529 30,700 -1,073 Descending Kansas City Center
Sun 01:27:57 PM 38.9881 -96.6825 100° East 454 522 29,500 -1,355 Descending Kansas City Center
Sun 01:28:59 PM 38.9678 -96.5428 101° East 453 521 27,900 -1,887 Descending Kansas City Center
Sun 01:30:01 PM 38.9419 -96.3603 100° East 441 507 25,600 -2,177 Descending Kansas City Center
Sun 01:31:03 PM 38.9211 -96.2142 100° East 437 503 23,400 -2,323 Descending Kansas City Center
Sun 01:32:05 PM 38.8967 -96.0489 101° East 425 489 20,800 -2,274 Descending Kansas City Center
Sun 01:33:07 PM 38.8767 -95.9125 101° East 409 471 18,700 -2,000 Descending Kansas City Center
Sun 01:34:08 PM 38.8547 -95.7572 100° East 400 460 16,700 -1,951 Descending Kansas City Center
Sun 01:35:10 PM 38.8353 -95.6264 101° East 393 452 14,700 -2,032 Descending Kansas City Center
Sun 01:36:12 PM 38.8144 -95.4797 100° East 378 435 12,500 -1,694 Descending Kansas City Center
Sun 01:37:14 PM 38.8381 -95.3717 74° East 338 389 11,200 -1,258 Descending Kansas City Center
Sun 01:38:16 PM 38.8975 -95.2781 51° Northeast 305 351 9,900 -1,355 Descending Kansas City Center
Sun 01:39:18 PM 38.9444 -95.2003 52° Northeast 290 334 8,400 -1,500 Descending Kansas City Center
Sun 01:40:20 PM 38.9964 -95.1117 53° Northeast 281 323 6,800 -1,355 Descending Kansas City Center
Sun 01:41:22 PM 39.0419 -95.0394 51° Northeast 273 314 5,600 -1,258 Descending Kansas City Center
Sun 01:42:24 PM 39.0925 -94.9547 52° Northeast 269 310 4,200 -1,268 Descending Kansas City Center
Sun 01:43:25 PM 39.1353 -94.8856 51° Northeast 260 299 3,000 -585 Descending Kansas City Center
Sun 01:44:27 PM 39.1736 -94.8214 52° Northeast 236 272 3,000 -145 Level Kansas City Center
Sun 01:45:29 PM 39.2117 -94.7642 49° Northeast 184 212 2,700 -484 Descending Kansas City Center
Sun 01:46:31 PM 39.2447 -94.7428 27° Northeast 142 163 2,000 -726 Descending Kansas City Center
Sun 01:47:33 PM 39.2856 -94.7311 12° North 136 157 1,200 -774 Descending Kansas City Center
Sun 01:49:00 PM 39.2833 -94.7000 67° East  Level FlightAware Approximate

Login

Don't have an account? Register now (free) for customized features, flight alerts, and more!